sensor_id;sensor_type;location;lat;lon;timestamp;pressure;altitude;pressure_sealevel;temperature
34807;BMP180;18310;55.586;12.286;2023-04-03T00:01:09;103378.00;;;10.90
34807;BMP180;18310;55.586;12.286;2023-04-03T00:04:13;103379.00;;;10.90
34807;BMP180;18310;55.586;12.286;2023-04-03T00:07:16;103392.00;;;10.80
34807;BMP180;18310;55.586;12.286;2023-04-03T00:10:22;103394.00;;;10.80
34807;BMP180;18310;55.586;12.286;2023-04-03T00:13:25;103399.00;;;10.70
34807;BMP180;18310;55.586;12.286;2023-04-03T00:16:29;103403.00;;;10.60
34807;BMP180;18310;55.586;12.286;2023-04-03T00:19:33;103402.00;;;10.60
34807;BMP180;18310;55.586;12.286;2023-04-03T00:22:37;103411.00;;;10.60
34807;BMP180;18310;55.586;12.286;2023-04-03T00:25:40;103409.00;;;10.60
34807;BMP180;18310;55.586;12.286;2023-04-03T00:28:44;103417.00;;;10.60
34807;BMP180;18310;55.586;12.286;2023-04-03T00:31:49;103423.00;;;10.70
34807;BMP180;18310;55.586;12.286;2023-04-03T00:34:52;103422.00;;;10.90
34807;BMP180;18310;55.586;12.286;2023-04-03T00:37:56;103425.00;;;11.10
34807;BMP180;18310;55.586;12.286;2023-04-03T00:40:59;103430.00;;;11.20
34807;BMP180;18310;55.586;12.286;2023-04-03T00:44:19;103431.00;;;11.30
34807;BMP180;18310;55.586;12.286;2023-04-03T00:47:24;103422.00;;;11.40
34807;BMP180;18310;55.586;12.286;2023-04-03T00:50:29;103426.00;;;11.50
34807;BMP180;18310;55.586;12.286;2023-04-03T00:53:35;103437.00;;;11.60
34807;BMP180;18310;55.586;12.286;2023-04-03T00:56:40;103432.00;;;11.70
34807;BMP180;18310;55.586;12.286;2023-04-03T00:59:46;103441.00;;;11.70
34807;BMP180;18310;55.586;12.286;2023-04-03T01:02:51;103437.00;;;11.80
34807;BMP180;18310;55.586;12.286;2023-04-03T01:05:55;103438.00;;;11.90
34807;BMP180;18310;55.586;12.286;2023-04-03T01:08:58;103438.00;;;11.90
34807;BMP180;18310;55.586;12.286;2023-04-03T01:12:15;103435.00;;;11.90
34807;BMP180;18310;55.586;12.286;2023-04-03T01:15:21;103435.00;;;11.90
34807;BMP180;18310;55.586;12.286;2023-04-03T01:18:26;103432.00;;;11.90
34807;BMP180;18310;55.586;12.286;2023-04-03T01:21:54;103441.00;;;12.00
34807;BMP180;18310;55.586;12.286;2023-04-03T01:25:02;103447.00;;;12.00
34807;BMP180;18310;55.586;12.286;2023-04-03T01:28:07;103438.00;;;12.00
34807;BMP180;18310;55.586;12.286;2023-04-03T01:31:18;103441.00;;;12.00
34807;BMP180;18310;55.586;12.286;2023-04-03T01:34:24;103437.00;;;12.00
34807;BMP180;18310;55.586;12.286;2023-04-03T01:37:27;103440.00;;;11.90
34807;BMP180;18310;55.586;12.286;2023-04-03T01:40:31;103441.00;;;11.90
34807;BMP180;18310;55.586;12.286;2023-04-03T01:43:35;103446.00;;;11.90
34807;BMP180;18310;55.586;12.286;2023-04-03T01:46:38;103432.00;;;11.90
34807;BMP180;18310;55.586;12.286;2023-04-03T01:49:43;103452.00;;;11.80
34807;BMP180;18310;55.586;12.286;2023-04-03T01:52:46;103458.00;;;11.80
34807;BMP180;18310;55.586;12.286;2023-04-03T01:55:50;103457.00;;;11.80
34807;BMP180;18310;55.586;12.286;2023-04-03T01:58:53;103451.00;;;11.70
34807;BMP180;18310;55.586;12.286;2023-04-03T02:01:57;103444.00;;;11.80
34807;BMP180;18310;55.586;12.286;2023-04-03T02:05:02;103455.00;;;11.80
34807;BMP180;18310;55.586;12.286;2023-04-03T02:08:06;103458.00;;;11.70
34807;BMP180;18310;55.586;12.286;2023-04-03T02:11:09;103456.00;;;11.70
34807;BMP180;18310;55.586;12.286;2023-04-03T02:14:12;103458.00;;;11.70
34807;BMP180;18310;55.586;12.286;2023-04-03T02:17:16;103459.00;;;11.70
34807;BMP180;18310;55.586;12.286;2023-04-03T02:20:21;103462.00;;;11.60
34807;BMP180;18310;55.586;12.286;2023-04-03T02:23:25;103459.00;;;11.50
34807;BMP180;18310;55.586;12.286;2023-04-03T02:26:28;103461.00;;;11.50
34807;BMP180;18310;55.586;12.286;2023-04-03T02:29:32;103462.00;;;11.50
34807;BMP180;18310;55.586;12.286;2023-04-03T02:32:35;103463.00;;;11.50
34807;BMP180;18310;55.586;12.286;2023-04-03T02:35:40;103471.00;;;11.40
34807;BMP180;18310;55.586;12.286;2023-04-03T02:38:43;103463.00;;;11.40
34807;BMP180;18310;55.586;12.286;2023-04-03T02:41:47;103464.00;;;11.40
34807;BMP180;18310;55.586;12.286;2023-04-03T02:44:50;103464.00;;;11.40
34807;BMP180;18310;55.586;12.286;2023-04-03T02:47:54;103464.00;;;11.30
34807;BMP180;18310;55.586;12.286;2023-04-03T02:50:59;103462.00;;;11.30
34807;BMP180;18310;55.586;12.286;2023-04-03T02:54:03;103464.00;;;11.30
34807;BMP180;18310;55.586;12.286;2023-04-03T02:57:06;103461.00;;;11.30
34807;BMP180;18310;55.586;12.286;2023-04-03T03:00:11;103466.00;;;11.20
34807;BMP180;18310;55.586;12.286;2023-04-03T03:03:15;103462.00;;;11.20
34807;BMP180;18310;55.586;12.286;2023-04-03T03:06:20;103474.00;;;11.10
34807;BMP180;18310;55.586;12.286;2023-04-03T03:09:23;103465.00;;;11.10
34807;BMP180;18310;55.586;12.286;2023-04-03T03:12:27;103465.00;;;11.00
34807;BMP180;18310;55.586;12.286;2023-04-03T03:15:34;103465.00;;;10.90
34807;BMP180;18310;55.586;12.286;2023-04-03T03:18:37;103467.00;;;10.80
34807;BMP180;18310;55.586;12.286;2023-04-03T03:21:42;103466.00;;;10.70
34807;BMP180;18310;55.586;12.286;2023-04-03T03:24:46;103467.00;;;10.60
34807;BMP180;18310;55.586;12.286;2023-04-03T03:27:49;103475.00;;;10.60
34807;BMP180;18310;55.586;12.286;2023-04-03T03:30:52;103464.00;;;10.50
34807;BMP180;18310;55.586;12.286;2023-04-03T03:33:56;103469.00;;;10.40
34807;BMP180;18310;55.586;12.286;2023-04-03T03:37:01;103475.00;;;10.40
34807;BMP180;18310;55.586;12.286;2023-04-03T03:40:05;103470.00;;;10.40
34807;BMP180;18310;55.586;12.286;2023-04-03T03:43:09;103481.00;;;10.30
34807;BMP180;18310;55.586;12.286;2023-04-03T03:46:13;103472.00;;;10.30
34807;BMP180;18310;55.586;12.286;2023-04-03T03:49:16;103477.00;;;10.20
34807;BMP180;18310;55.586;12.286;2023-04-03T03:52:21;103478.00;;;10.20
34807;BMP180;18310;55.586;12.286;2023-04-03T03:55:25;103476.00;;;10.20
34807;BMP180;18310;55.586;12.286;2023-04-03T03:58:28;103477.00;;;10.20
34807;BMP180;18310;55.586;12.286;2023-04-03T04:01:32;103480.00;;;10.10
34807;BMP180;18310;55.586;12.286;2023-04-03T04:04:38;103488.00;;;10.10
34807;BMP180;18310;55.586;12.286;2023-04-03T04:07:42;103484.00;;;10.10
34807;BMP180;18310;55.586;12.286;2023-04-03T04:10:46;103475.00;;;10.00
34807;BMP180;18310;55.586;12.286;2023-04-03T04:13:49;103473.00;;;10.00
34807;BMP180;18310;55.586;12.286;2023-04-03T04:16:53;103481.00;;;9.90
34807;BMP180;18310;55.586;12.286;2023-04-03T04:19:56;103486.00;;;9.80
34807;BMP180;18310;55.586;12.286;2023-04-03T04:23:01;103479.00;;;9.80
34807;BMP180;18310;55.586;12.286;2023-04-03T04:26:05;103490.00;;;9.80
34807;BMP180;18310;55.586;12.286;2023-04-03T04:29:08;103501.00;;;9.80
34807;BMP180;18310;55.586;12.286;2023-04-03T04:32:12;103506.00;;;9.80
34807;BMP180;18310;55.586;12.286;2023-04-03T04:35:15;103504.00;;;9.80
34807;BMP180;18310;55.586;12.286;2023-04-03T04:38:20;103514.00;;;9.70
34807;BMP180;18310;55.586;12.286;2023-04-03T04:41:24;103507.00;;;9.70
34807;BMP180;18310;55.586;12.286;2023-04-03T04:44:28;103518.00;;;9.80
34807;BMP180;18310;55.586;12.286;2023-04-03T04:47:31;103512.00;;;9.80
34807;BMP180;18310;55.586;12.286;2023-04-03T04:50:34;103518.00;;;9.80
34807;BMP180;18310;55.586;12.286;2023-04-03T04:53:39;103527.00;;;9.70
34807;BMP180;18310;55.586;12.286;2023-04-03T04:56:43;103531.00;;;9.70
34807;BMP180;18310;55.586;12.286;2023-04-03T04:59:46;103531.00;;;9.80
34807;BMP180;18310;55.586;12.286;2023-04-03T05:02:49;103542.00;;;9.80
34807;BMP180;18310;55.586;12.286;2023-04-03T05:05:53;103532.00;;;9.80
34807;BMP180;18310;55.586;12.286;2023-04-03T05:08:59;103530.00;;;9.80
34807;BMP180;18310;55.586;12.286;2023-04-03T05:12:03;103530.00;;;9.80
34807;BMP180;18310;55.586;12.286;2023-04-03T05:15:07;103540.00;;;9.90
34807;BMP180;18310;55.586;12.286;2023-04-03T05:18:11;103537.00;;;10.10
34807;BMP180;18310;55.586;12.286;2023-04-03T05:21:15;103536.00;;;10.60
34807;BMP180;18310;55.586;12.286;2023-04-03T05:24:21;103539.00;;;11.10
34807;BMP180;18310;55.586;12.286;2023-04-03T05:27:25;103544.00;;;11.70
34807;BMP180;18310;55.586;12.286;2023-04-03T05:30:30;103548.00;;;12.40
34807;BMP180;18310;55.586;12.286;2023-04-03T05:33:33;103545.00;;;13.00
34807;BMP180;18310;55.586;12.286;2023-04-03T05:36:37;103553.00;;;13.40
34807;BMP180;18310;55.586;12.286;2023-04-03T05:39:42;103555.00;;;13.90
34807;BMP180;18310;55.586;12.286;2023-04-03T05:42:45;103554.00;;;14.40
34807;BMP180;18310;55.586;12.286;2023-04-03T05:45:49;103549.00;;;14.90
34807;BMP180;18310;55.586;12.286;2023-04-03T05:48:52;103554.00;;;15.40
34807;BMP180;18310;55.586;12.286;2023-04-03T05:51:55;103557.00;;;15.90
34807;BMP180;18310;55.586;12.286;2023-04-03T05:55:01;103558.00;;;16.30
34807;BMP180;18310;55.586;12.286;2023-04-03T05:58:04;103563.00;;;16.70
34807;BMP180;18310;55.586;12.286;2023-04-03T06:01:09;103568.00;;;17.10
34807;BMP180;18310;55.586;12.286;2023-04-03T06:04:13;103570.00;;;17.50
34807;BMP180;18310;55.586;12.286;2023-04-03T06:07:19;103568.00;;;17.80
34807;BMP180;18310;55.586;12.286;2023-04-03T06:10:26;103567.00;;;18.10
34807;BMP180;18310;55.586;12.286;2023-04-03T06:13:29;103572.00;;;18.40
34807;BMP180;18310;55.586;12.286;2023-04-03T06:16:33;103575.00;;;18.80
34807;BMP180;18310;55.586;12.286;2023-04-03T06:19:40;103574.00;;;19.10
34807;BMP180;18310;55.586;12.286;2023-04-03T06:22:44;103579.00;;;19.40
34807;BMP180;18310;55.586;12.286;2023-04-03T06:25:49;103587.00;;;19.50
34807;BMP180;18310;55.586;12.286;2023-04-03T06:28:52;103585.00;;;19.70
34807;BMP180;18310;55.586;12.286;2023-04-03T06:31:56;103583.00;;;19.90
34807;BMP180;18310;55.586;12.286;2023-04-03T06:34:59;103584.00;;;19.90
34807;BMP180;18310;55.586;12.286;2023-04-03T06:38:03;103594.00;;;19.90
34807;BMP180;18310;55.586;12.286;2023-04-03T06:41:12;103586.00;;;19.90
34807;BMP180;18310;55.586;12.286;2023-04-03T06:44:16;103584.00;;;19.80
34807;BMP180;18310;55.586;12.286;2023-04-03T06:47:20;103565.00;;;19.70
34807;BMP180;18310;55.586;12.286;2023-04-03T06:50:23;103573.00;;;19.70
34807;BMP180;18310;55.586;12.286;2023-04-03T06:53:27;103579.00;;;19.60
34807;BMP180;18310;55.586;12.286;2023-04-03T06:56:32;103590.00;;;19.70
34807;BMP180;18310;55.586;12.286;2023-04-03T06:59:35;103582.00;;;19.60
34807;BMP180;18310;55.586;12.286;2023-04-03T07:02:38;103590.00;;;19.60
34807;BMP180;18310;55.586;12.286;2023-04-03T07:05:42;103593.00;;;19.50
34807;BMP180;18310;55.586;12.286;2023-04-03T07:08:47;103585.00;;;19.40
34807;BMP180;18310;55.586;12.286;2023-04-03T07:11:52;103589.00;;;19.50
34807;BMP180;18310;55.586;12.286;2023-04-03T07:14:57;103592.00;;;19.50
34807;BMP180;18310;55.586;12.286;2023-04-03T07:18:01;103590.00;;;19.50
34807;BMP180;18310;55.586;12.286;2023-04-03T07:21:05;103593.00;;;19.40
34807;BMP180;18310;55.586;12.286;2023-04-03T07:24:08;103590.00;;;19.40
34807;BMP180;18310;55.586;12.286;2023-04-03T07:27:18;103599.00;;;19.20
34807;BMP180;18310;55.586;12.286;2023-04-03T07:30:21;103595.00;;;18.70
34807;BMP180;18310;55.586;12.286;2023-04-03T07:33:25;103593.00;;;18.10
34807;BMP180;18310;55.586;12.286;2023-04-03T07:36:28;103591.00;;;17.50
34807;BMP180;18310;55.586;12.286;2023-04-03T07:39:35;103590.00;;;17.10
34807;BMP180;18310;55.586;12.286;2023-04-03T07:42:40;103587.00;;;16.70
34807;BMP180;18310;55.586;12.286;2023-04-03T07:45:46;103584.00;;;16.40
34807;BMP180;18310;55.586;12.286;2023-04-03T07:48:51;103593.00;;;16.20
34807;BMP180;18310;55.586;12.286;2023-04-03T07:51:57;103585.00;;;16.10
34807;BMP180;18310;55.586;12.286;2023-04-03T07:55:01;103581.00;;;16.00
34807;BMP180;18310;55.586;12.286;2023-04-03T07:58:06;103587.00;;;15.70
34807;BMP180;18310;55.586;12.286;2023-04-03T08:01:09;103596.00;;;15.60
34807;BMP180;18310;55.586;12.286;2023-04-03T08:04:12;103593.00;;;15.40
34807;BMP180;18310;55.586;12.286;2023-04-03T08:07:16;103590.00;;;15.30
34807;BMP180;18310;55.586;12.286;2023-04-03T08:10:20;103595.00;;;15.30
34807;BMP180;18310;55.586;12.286;2023-04-03T08:13:25;103597.00;;;15.20
34807;BMP180;18310;55.586;12.286;2023-04-03T08:16:28;103594.00;;;15.20
34807;BMP180;18310;55.586;12.286;2023-04-03T08:19:32;103589.00;;;15.10
34807;BMP180;18310;55.586;12.286;2023-04-03T08:22:35;103593.00;;;15.10
34807;BMP180;18310;55.586;12.286;2023-04-03T08:25:39;103601.00;;;15.10
34807;BMP180;18310;55.586;12.286;2023-04-03T08:28:45;103596.00;;;15.10
34807;BMP180;18310;55.586;12.286;2023-04-03T08:31:49;103596.00;;;15.20
34807;BMP180;18310;55.586;12.286;2023-04-03T08:34:52;103594.00;;;15.30
34807;BMP180;18310;55.586;12.286;2023-04-03T08:37:56;103597.00;;;15.40
34807;BMP180;18310;55.586;12.286;2023-04-03T08:41:02;103596.00;;;15.40
34807;BMP180;18310;55.586;12.286;2023-04-03T08:44:15;103589.00;;;15.60
34807;BMP180;18310;55.586;12.286;2023-04-03T08:47:23;103595.00;;;15.70
34807;BMP180;18310;55.586;12.286;2023-04-03T08:50:30;103590.00;;;15.70
34807;BMP180;18310;55.586;12.286;2023-04-03T08:53:39;103594.00;;;15.70
34807;BMP180;18310;55.586;12.286;2023-04-03T08:56:44;103591.00;;;15.70
34807;BMP180;18310;55.586;12.286;2023-04-03T08:59:49;103590.00;;;15.70
34807;BMP180;18310;55.586;12.286;2023-04-03T09:02:55;103592.00;;;15.70
34807;BMP180;18310;55.586;12.286;2023-04-03T09:06:02;103581.00;;;15.60
34807;BMP180;18310;55.586;12.286;2023-04-03T09:09:13;103589.00;;;15.70
34807;BMP180;18310;55.586;12.286;2023-04-03T09:12:21;103579.00;;;15.70
34807;BMP180;18310;55.586;12.286;2023-04-03T09:15:28;103584.00;;;15.90
34807;BMP180;18310;55.586;12.286;2023-04-03T09:18:45;103588.00;;;15.90
34807;BMP180;18310;55.586;12.286;2023-04-03T09:21:52;103589.00;;;15.90
34807;BMP180;18310;55.586;12.286;2023-04-03T09:24:56;103587.00;;;15.90
34807;BMP180;18310;55.586;12.286;2023-04-03T09:28:00;103586.00;;;15.90
34807;BMP180;18310;55.586;12.286;2023-04-03T09:31:16;103581.00;;;15.90
34807;BMP180;18310;55.586;12.286;2023-04-03T09:34:24;103586.00;;;16.00
34807;BMP180;18310;55.586;12.286;2023-04-03T09:37:40;103573.00;;;16.10
34807;BMP180;18310;55.586;12.286;2023-04-03T09:40:46;103575.00;;;16.10
34807;BMP180;18310;55.586;12.286;2023-04-03T09:43:52;103572.00;;;16.00
34807;BMP180;18310;55.586;12.286;2023-04-03T09:46:58;103566.00;;;15.90
34807;BMP180;18310;55.586;12.286;2023-04-03T09:50:18;103568.00;;;16.00
34807;BMP180;18310;55.586;12.286;2023-04-03T09:53:27;103573.00;;;16.00
34807;BMP180;18310;55.586;12.286;2023-04-03T09:56:31;103560.00;;;16.00
34807;BMP180;18310;55.586;12.286;2023-04-03T09:59:40;103563.00;;;16.00
34807;BMP180;18310;55.586;12.286;2023-04-03T10:02:49;103551.00;;;16.00
34807;BMP180;18310;55.586;12.286;2023-04-03T10:05:54;103545.00;;;16.10
34807;BMP180;18310;55.586;12.286;2023-04-03T10:09:05;103540.00;;;16.10
34807;BMP180;18310;55.586;12.286;2023-04-03T10:12:10;103528.00;;;16.10
34807;BMP180;18310;55.586;12.286;2023-04-03T10:15:17;103546.00;;;16.20
34807;BMP180;18310;55.586;12.286;2023-04-03T10:18:32;103541.00;;;16.20
34807;BMP180;18310;55.586;12.286;2023-04-03T10:21:44;103534.00;;;16.30
34807;BMP180;18310;55.586;12.286;2023-04-03T10:25:00;103533.00;;;16.30
34807;BMP180;18310;55.586;12.286;2023-04-03T10:28:09;103533.00;;;16.30
34807;BMP180;18310;55.586;12.286;2023-04-03T10:31:19;103523.00;;;16.20
34807;BMP180;18310;55.586;12.286;2023-04-03T10:34:27;103529.00;;;16.30
34807;BMP180;18310;55.586;12.286;2023-04-03T10:37:40;103514.00;;;16.30
34807;BMP180;18310;55.586;12.286;2023-04-03T10:40:52;103513.00;;;16.30
34807;BMP180;18310;55.586;12.286;2023-04-03T10:44:04;103516.00;;;16.30
34807;BMP180;18310;55.586;12.286;2023-04-03T10:47:13;103511.00;;;16.40
34807;BMP180;18310;55.586;12.286;2023-04-03T10:50:28;103509.00;;;16.50
34807;BMP180;18310;55.586;12.286;2023-04-03T10:53:38;103509.00;;;16.60
34807;BMP180;18310;55.586;12.286;2023-04-03T10:56:44;103510.00;;;16.60
34807;BMP180;18310;55.586;12.286;2023-04-03T11:00:01;103501.00;;;16.60
34807;BMP180;18310;55.586;12.286;2023-04-03T11:03:08;103498.00;;;16.60
34807;BMP180;18310;55.586;12.286;2023-04-03T11:06:17;103501.00;;;16.60
34807;BMP180;18310;55.586;12.286;2023-04-03T11:09:26;103499.00;;;16.70
34807;BMP180;18310;55.586;12.286;2023-04-03T11:12:38;103511.00;;;16.70
34807;BMP180;18310;55.586;12.286;2023-04-03T11:15:44;103504.00;;;16.80
34807;BMP180;18310;55.586;12.286;2023-04-03T11:18:52;103496.00;;;16.90
34807;BMP180;18310;55.586;12.286;2023-04-03T11:22:03;103507.00;;;16.90
34807;BMP180;18310;55.586;12.286;2023-04-03T11:25:17;103493.00;;;17.00
34807;BMP180;18310;55.586;12.286;2023-04-03T11:28:24;103504.00;;;16.90
34807;BMP180;18310;55.586;12.286;2023-04-03T11:31:41;103502.00;;;17.00
34807;BMP180;18310;55.586;12.286;2023-04-03T11:34:49;103496.00;;;16.90
34807;BMP180;18310;55.586;12.286;2023-04-03T11:37:55;103489.00;;;16.90
34807;BMP180;18310;55.586;12.286;2023-04-03T11:40:59;103486.00;;;16.90
34807;BMP180;18310;55.586;12.286;2023-04-03T11:44:05;103483.00;;;16.90
34807;BMP180;18310;55.586;12.286;2023-04-03T11:47:11;103487.00;;;16.90
34807;BMP180;18310;55.586;12.286;2023-04-03T11:50:41;103488.00;;;16.90
34807;BMP180;18310;55.586;12.286;2023-04-03T11:53:48;103490.00;;;16.90
34807;BMP180;18310;55.586;12.286;2023-04-03T11:56:51;103490.00;;;16.80
34807;BMP180;18310;55.586;12.286;2023-04-03T11:59:55;103493.00;;;16.70
34807;BMP180;18310;55.586;12.286;2023-04-03T12:02:59;103474.00;;;16.60
34807;BMP180;18310;55.586;12.286;2023-04-03T12:10:00;103483.00;;;16.40
34807;BMP180;18310;55.586;12.286;2023-04-03T12:13:13;103472.00;;;16.30
34807;BMP180;18310;55.586;12.286;2023-04-03T12:16:19;103475.00;;;16.30
34807;BMP180;18310;55.586;12.286;2023-04-03T12:23:07;103469.00;;;16.20
34807;BMP180;18310;55.586;12.286;2023-04-03T12:26:24;103478.00;;;16.20
34807;BMP180;18310;55.586;12.286;2023-04-03T12:29:44;103455.00;;;16.10
34807;BMP180;18310;55.586;12.286;2023-04-03T12:33:04;103462.00;;;16.00
34807;BMP180;18310;55.586;12.286;2023-04-03T12:36:18;103457.00;;;15.90
34807;BMP180;18310;55.586;12.286;2023-04-03T12:39:43;103455.00;;;15.80
34807;BMP180;18310;55.586;12.286;2023-04-03T12:43:14;103448.00;;;15.80
34807;BMP180;18310;55.586;12.286;2023-04-03T12:46:22;103441.00;;;15.70
34807;BMP180;18310;55.586;12.286;2023-04-03T12:49:33;103434.00;;;15.70
34807;BMP180;18310;55.586;12.286;2023-04-03T12:52:41;103437.00;;;15.60
34807;BMP180;18310;55.586;12.286;2023-04-03T12:55:45;103429.00;;;15.60
34807;BMP180;18310;55.586;12.286;2023-04-03T12:58:51;103437.00;;;15.50
34807;BMP180;18310;55.586;12.286;2023-04-03T13:01:55;103430.00;;;15.50
34807;BMP180;18310;55.586;12.286;2023-04-03T13:05:06;103429.00;;;15.50
34807;BMP180;18310;55.586;12.286;2023-04-03T13:08:12;103428.00;;;15.40
34807;BMP180;18310;55.586;12.286;2023-04-03T13:11:19;103433.00;;;15.40
34807;BMP180;18310;55.586;12.286;2023-04-03T13:14:27;103423.00;;;15.30
34807;BMP180;18310;55.586;12.286;2023-04-03T13:17:31;103420.00;;;15.20
34807;BMP180;18310;55.586;12.286;2023-04-03T13:20:36;103424.00;;;15.20
34807;BMP180;18310;55.586;12.286;2023-04-03T13:23:45;103417.00;;;15.20
34807;BMP180;18310;55.586;12.286;2023-04-03T13:26:54;103426.00;;;15.20
34807;BMP180;18310;55.586;12.286;2023-04-03T13:30:01;103422.00;;;15.20
34807;BMP180;18310;55.586;12.286;2023-04-03T13:33:19;103404.00;;;15.20
34807;BMP180;18310;55.586;12.286;2023-04-03T13:36:29;103398.00;;;15.20
34807;BMP180;18310;55.586;12.286;2023-04-03T13:39:34;103391.00;;;15.30
34807;BMP180;18310;55.586;12.286;2023-04-03T13:42:40;103392.00;;;15.40
34807;BMP180;18310;55.586;12.286;2023-04-03T13:46:02;103398.00;;;15.40
34807;BMP180;18310;55.586;12.286;2023-04-03T13:49:18;103393.00;;;15.40
34807;BMP180;18310;55.586;12.286;2023-04-03T13:52:24;103392.00;;;15.40
34807;BMP180;18310;55.586;12.286;2023-04-03T13:55:34;103388.00;;;15.40
34807;BMP180;18310;55.586;12.286;2023-04-03T13:58:38;103367.00;;;15.40
34807;BMP180;18310;55.586;12.286;2023-04-03T14:01:47;103367.00;;;15.40
34807;BMP180;18310;55.586;12.286;2023-04-03T14:04:54;103379.00;;;15.50
34807;BMP180;18310;55.586;12.286;2023-04-03T14:08:00;103367.00;;;15.50
34807;BMP180;18310;55.586;12.286;2023-04-03T14:11:04;103369.00;;;15.50
34807;BMP180;18310;55.586;12.286;2023-04-03T14:14:13;103376.00;;;15.50
34807;BMP180;18310;55.586;12.286;2023-04-03T14:17:20;103363.00;;;15.50
34807;BMP180;18310;55.586;12.286;2023-04-03T14:20:27;103375.00;;;15.60
34807;BMP180;18310;55.586;12.286;2023-04-03T14:23:31;103373.00;;;15.60
34807;BMP180;18310;55.586;12.286;2023-04-03T14:26:35;103368.00;;;15.60
34807;BMP180;18310;55.586;12.286;2023-04-03T14:29:38;103369.00;;;15.60
34807;BMP180;18310;55.586;12.286;2023-04-03T14:32:43;103367.00;;;15.60
34807;BMP180;18310;55.586;12.286;2023-04-03T14:35:48;103355.00;;;15.60
34807;BMP180;18310;55.586;12.286;2023-04-03T14:38:53;103360.00;;;15.60
34807;BMP180;18310;55.586;12.286;2023-04-03T14:41:57;103361.00;;;15.60
34807;BMP180;18310;55.586;12.286;2023-04-03T14:45:02;103358.00;;;15.60
34807;BMP180;18310;55.586;12.286;2023-04-03T14:48:10;103359.00;;;15.70
34807;BMP180;18310;55.586;12.286;2023-04-03T14:51:18;103362.00;;;15.70
34807;BMP180;18310;55.586;12.286;2023-04-03T14:54:23;103358.00;;;15.80
34807;BMP180;18310;55.586;12.286;2023-04-03T14:57:30;103360.00;;;15.80
34807;BMP180;18310;55.586;12.286;2023-04-03T15:02:25;103359.00;;;16.10
34807;BMP180;18310;55.586;12.286;2023-04-03T15:05:29;103362.00;;;16.20
34807;BMP180;18310;55.586;12.286;2023-04-03T15:08:33;103354.00;;;16.20
34807;BMP180;18310;55.586;12.286;2023-04-03T15:11:36;103357.00;;;16.20
34807;BMP180;18310;55.586;12.286;2023-04-03T15:14:40;103350.00;;;16.10
34807;BMP180;18310;55.586;12.286;2023-04-03T15:18:00;103348.00;;;16.00
34807;BMP180;18310;55.586;12.286;2023-04-03T15:21:03;103344.00;;;15.90
34807;BMP180;18310;55.586;12.286;2023-04-03T15:24:08;103348.00;;;15.70
34807;BMP180;18310;55.586;12.286;2023-04-03T15:27:13;103336.00;;;15.60
34807;BMP180;18310;55.586;12.286;2023-04-03T15:30:18;103337.00;;;15.50
34807;BMP180;18310;55.586;12.286;2023-04-03T15:33:25;103335.00;;;15.40
34807;BMP180;18310;55.586;12.286;2023-04-03T15:36:28;103336.00;;;15.40
34807;BMP180;18310;55.586;12.286;2023-04-03T15:39:35;103330.00;;;15.30
34807;BMP180;18310;55.586;12.286;2023-04-03T15:42:39;103329.00;;;15.30
34807;BMP180;18310;55.586;12.286;2023-04-03T15:45:44;103331.00;;;15.30
34807;BMP180;18310;55.586;12.286;2023-04-03T15:48:48;103320.00;;;15.60
34807;BMP180;18310;55.586;12.286;2023-04-03T15:51:52;103328.00;;;15.70
34807;BMP180;18310;55.586;12.286;2023-04-03T15:54:56;103334.00;;;15.70
34807;BMP180;18310;55.586;12.286;2023-04-03T15:58:00;103331.00;;;15.60
34807;BMP180;18310;55.586;12.286;2023-04-03T16:01:04;103334.00;;;15.70
34807;BMP180;18310;55.586;12.286;2023-04-03T16:04:10;103325.00;;;15.70
34807;BMP180;18310;55.586;12.286;2023-04-03T16:07:16;103329.00;;;15.60
34807;BMP180;18310;55.586;12.286;2023-04-03T16:10:20;103324.00;;;15.30
34807;BMP180;18310;55.586;12.286;2023-04-03T16:13:23;103323.00;;;15.20
34807;BMP180;18310;55.586;12.286;2023-04-03T16:16:27;103316.00;;;15.40
34807;BMP180;18310;55.586;12.286;2023-04-03T16:19:32;103329.00;;;15.10
34807;BMP180;18310;55.586;12.286;2023-04-03T16:22:36;103332.00;;;15.10
34807;BMP180;18310;55.586;12.286;2023-04-03T16:25:40;103333.00;;;15.10
34807;BMP180;18310;55.586;12.286;2023-04-03T16:28:47;103328.00;;;15.20
34807;BMP180;18310;55.586;12.286;2023-04-03T16:31:51;103328.00;;;15.10
34807;BMP180;18310;55.586;12.286;2023-04-03T16:34:56;103319.00;;;15.10
34807;BMP180;18310;55.586;12.286;2023-04-03T16:37:59;103322.00;;;15.00
34807;BMP180;18310;55.586;12.286;2023-04-03T16:41:03;103319.00;;;15.00
34807;BMP180;18310;55.586;12.286;2023-04-03T16:44:06;103320.00;;;15.00
34807;BMP180;18310;55.586;12.286;2023-04-03T16:47:10;103325.00;;;15.00
34807;BMP180;18310;55.586;12.286;2023-04-03T16:50:17;103317.00;;;14.90
34807;BMP180;18310;55.586;12.286;2023-04-03T16:53:21;103318.00;;;14.90
34807;BMP180;18310;55.586;12.286;2023-04-03T16:56:24;103312.00;;;14.90
34807;BMP180;18310;55.586;12.286;2023-04-03T16:59:29;103314.00;;;14.90
34807;BMP180;18310;55.586;12.286;2023-04-03T17:02:32;103317.00;;;14.80
34807;BMP180;18310;55.586;12.286;2023-04-03T17:05:37;103312.00;;;14.90
34807;BMP180;18310;55.586;12.286;2023-04-03T17:08:41;103311.00;;;14.80
34807;BMP180;18310;55.586;12.286;2023-04-03T17:11:44;103306.00;;;14.80
34807;BMP180;18310;55.586;12.286;2023-04-03T17:14:50;103316.00;;;14.70
34807;BMP180;18310;55.586;12.286;2023-04-03T17:17:54;103307.00;;;14.70
34807;BMP180;18310;55.586;12.286;2023-04-03T17:20:59;103311.00;;;14.70
34807;BMP180;18310;55.586;12.286;2023-04-03T17:24:05;103308.00;;;14.60
34807;BMP180;18310;55.586;12.286;2023-04-03T17:27:11;103316.00;;;14.50
34807;BMP180;18310;55.586;12.286;2023-04-03T17:30:14;103314.00;;;14.50